createdAt,value
2022-11-23T00:00:29.382Z,10.80
2022-11-23T00:05:31.851Z,11.97
2022-11-23T00:10:35.526Z,12.20
2022-11-23T00:15:37.878Z,13.23
2022-11-23T00:20:40.286Z,11.23
2022-11-23T00:25:46.709Z,12.18
2022-11-23T00:30:49.703Z,12.60
2022-11-23T00:35:59.786Z,13.52
2022-11-23T00:41:04.445Z,11.70
2022-11-23T00:46:07.543Z,11.90
2022-11-23T00:51:10.912Z,12.70
2022-11-23T00:56:14.662Z,13.27
2022-11-23T01:01:18.388Z,12.85
2022-11-23T01:06:21.623Z,13.82
2022-11-23T01:11:26.041Z,13.45
2022-11-23T01:16:29.082Z,13.27
2022-11-23T01:21:32.576Z,14.10
2022-11-23T01:31:43.209Z,13.73
2022-11-23T01:36:48.752Z,14.27
2022-11-23T01:41:51.114Z,14.32
2022-11-23T01:46:54.798Z,15.10
2022-11-23T01:51:59.154Z,15.52
2022-11-23T01:57:04.183Z,17.27
2022-11-23T02:02:07.971Z,15.95
2022-11-23T02:07:10.471Z,17.70
2022-11-23T02:12:13.321Z,17.67
2022-11-23T02:17:17.038Z,17.27
2022-11-23T02:22:23.729Z,16.40
2022-11-23T02:27:27.904Z,17.88
2022-11-23T02:32:30.812Z,17.27
2022-11-23T02:37:33.217Z,17.60
2022-11-23T02:42:38.796Z,16.60
2022-11-23T02:47:41.144Z,17.05
2022-11-23T02:52:43.489Z,17.23
2022-11-23T02:57:47.225Z,18.40
2022-11-23T03:02:49.669Z,16.40
2022-11-23T03:07:52.098Z,15.40
2022-11-23T03:12:56.772Z,15.20
2022-11-23T03:17:59.182Z,13.35
2022-11-23T03:23:01.586Z,13.20
2022-11-23T03:28:05.466Z,13.57
2022-11-23T03:33:07.889Z,11.63
2022-11-23T03:38:10.504Z,11.57
2022-11-23T03:43:14.604Z,10.07
2022-11-23T03:48:17.105Z,10.05
2022-11-23T03:53:19.463Z,10.07
2022-11-23T03:58:23.198Z,9.43
2022-11-23T04:03:25.544Z,9.30
2022-11-23T04:08:27.911Z,9.52
2022-11-23T04:13:31.597Z,9.23
2022-11-23T04:18:34.021Z,9.63
2022-11-23T04:23:36.374Z,8.15
2022-11-23T04:28:40.081Z,8.55
2022-11-23T04:33:42.490Z,8.82
2022-11-23T04:38:44.859Z,7.80
2022-11-23T04:43:49.944Z,8.63
2022-11-23T04:48:52.313Z,8.95
2022-11-23T04:53:54.680Z,9.20
2022-11-23T04:58:58.393Z,7.90
2022-11-23T05:04:00.735Z,8.23
2022-11-23T05:09:03.134Z,7.43
2022-11-23T05:14:06.831Z,7.18
2022-11-23T05:19:09.305Z,7.50
2022-11-23T05:24:11.840Z,7.70
2022-11-23T05:29:15.553Z,7.20
2022-11-23T05:34:17.906Z,7.30
2022-11-23T05:39:23.010Z,7.78
2022-11-23T05:44:26.755Z,7.03
2022-11-23T05:49:29.245Z,7.18
2022-11-23T05:54:31.670Z,7.00
2022-11-23T05:59:35.770Z,6.97
2022-11-23T06:04:38.157Z,6.38
2022-11-23T06:09:40.557Z,6.13
2022-11-23T06:14:44.331Z,6.28
2022-11-23T06:19:46.724Z,7.15
2022-11-23T06:24:49.127Z,5.57
2022-11-23T06:29:53.137Z,6.30
2022-11-23T06:34:59.516Z,6.38
2022-11-23T06:40:03.356Z,6.32
2022-11-23T06:50:10.842Z,6.32
2022-11-23T06:55:13.316Z,5.20
2022-11-23T07:00:16.254Z,5.70
2022-11-23T07:05:20.024Z,5.63
2022-11-23T07:10:22.355Z,5.63
2022-11-23T07:15:24.731Z,5.45
2022-11-23T07:20:28.426Z,5.00
2022-11-23T07:25:31.166Z,5.32
2022-11-23T07:30:34.682Z,5.13
2022-11-23T07:40:40.784Z,5.40
2022-11-23T07:45:43.192Z,4.60
2022-11-23T07:50:45.598Z,4.55
2022-11-23T07:55:49.284Z,5.38
2022-11-23T08:00:51.632Z,4.40
2022-11-23T08:05:54.030Z,4.18
2022-11-23T08:10:57.726Z,4.10
2022-11-23T08:16:00.677Z,4.80
2022-11-23T08:21:03.276Z,5.10
2022-11-23T08:26:13.199Z,5.00
2022-11-23T08:31:15.995Z,4.85
2022-11-23T08:36:18.459Z,4.82
2022-11-23T08:41:22.231Z,4.60
2022-11-23T08:46:24.952Z,5.65
2022-11-23T08:51:27.361Z,4.23
2022-11-23T08:56:31.059Z,5.10
2022-11-23T09:01:33.476Z,4.65
2022-11-23T09:06:35.946Z,4.72
2022-11-23T09:11:39.695Z,4.93
2022-11-23T09:16:42.203Z,5.00
2022-11-23T09:21:44.622Z,5.10
2022-11-23T09:26:48.377Z,3.78
2022-11-23T09:31:50.780Z,4.18
2022-11-23T09:36:53.327Z,3.97
2022-11-23T09:42:06.868Z,3.40
2022-11-23T09:47:14.119Z,3.70
2022-11-23T09:52:17.773Z,3.10
2022-11-23T09:57:23.348Z,2.70
2022-11-23T10:02:28.754Z,2.58
2022-11-23T10:07:40.547Z,2.03
2022-11-23T10:12:49.971Z,3.00
2022-11-23T10:18:10.276Z,2.33
2022-11-23T10:23:14.769Z,3.03
2022-11-23T10:28:19.706Z,2.20
2022-11-23T10:33:26.153Z,2.50
2022-11-23T10:38:28.753Z,3.08
2022-11-23T10:43:34.621Z,2.40
2022-11-23T10:48:37.504Z,2.17
2022-11-23T10:53:39.944Z,2.63
2022-11-23T10:58:45.342Z,2.93
2022-11-23T11:03:47.718Z,2.47
2022-11-23T11:08:51.358Z,2.47
2022-11-23T11:14:03.476Z,2.33
2022-11-23T11:19:27.237Z,1.80
2022-11-23T11:24:32.312Z,1.88
2022-11-23T11:29:39.888Z,3.03
2022-11-23T11:34:46.009Z,2.10
2022-11-23T11:39:50.682Z,2.47
2022-11-23T11:44:55.210Z,2.33
2022-11-23T11:49:58.828Z,2.40
2022-11-23T11:55:03.805Z,2.33
2022-11-23T12:00:11.257Z,2.22
2022-11-23T12:05:18.522Z,2.10
2022-11-23T12:10:22.582Z,1.80
2022-11-23T12:20:57.238Z,1.98
2022-11-23T12:26:13.781Z,2.03
2022-11-23T12:31:20.198Z,1.80
2022-11-23T12:36:29.200Z,1.90
2022-11-23T12:41:37.791Z,2.00
2022-11-23T12:46:44.699Z,2.10
2022-11-23T12:51:53.735Z,1.80
2022-11-23T12:57:00.554Z,2.67
2022-11-23T13:02:09.781Z,2.70
2022-11-23T13:07:38.241Z,2.17
2022-11-23T13:12:53.602Z,1.75
2022-11-23T13:18:01.175Z,2.17
2022-11-23T13:23:04.878Z,2.33
2022-11-23T13:28:28.441Z,2.17
2022-11-23T13:33:38.282Z,2.30
2022-11-23T13:38:42.174Z,2.58
2022-11-23T13:43:44.549Z,2.80
2022-11-23T13:48:56.819Z,2.20
2022-11-23T13:54:02.490Z,1.70
2022-11-23T13:59:23.658Z,2.63
2022-11-23T14:04:28.126Z,1.90
2022-11-23T14:09:34.382Z,2.00
2022-11-23T14:14:45.108Z,2.15
2022-11-23T14:20:05.134Z,2.22
2022-11-23T14:25:19.834Z,2.30
2022-11-23T14:30:26.138Z,2.00
2022-11-23T14:35:33.411Z,2.38
2022-11-23T14:40:44.180Z,2.70
2022-11-23T14:45:47.664Z,2.95
2022-11-23T14:50:56.763Z,2.85
2022-11-23T14:56:00.085Z,1.70
2022-11-23T15:01:02.980Z,2.42
2022-11-23T15:06:09.993Z,2.20
2022-11-23T15:11:15.316Z,2.53
2022-11-23T15:16:18.889Z,2.10
2022-11-23T15:21:27.328Z,3.75
2022-11-23T15:32:14.406Z,2.55
2022-11-23T15:37:17.582Z,2.75
2022-11-23T15:42:21.282Z,2.78
2022-11-23T15:47:26.172Z,2.45
2022-11-23T15:52:31.047Z,2.90
2022-11-23T15:57:33.611Z,3.13
2022-11-23T16:02:36.935Z,2.93
2022-11-23T16:07:51.764Z,2.88
2022-11-23T16:12:55.009Z,2.70
2022-11-23T16:17:57.781Z,2.78
2022-11-23T16:23:01.592Z,2.57
2022-11-23T16:28:05.435Z,3.67
2022-11-23T16:33:11.771Z,2.58
2022-11-23T16:38:15.488Z,2.70
2022-11-23T16:43:18.466Z,3.03
2022-11-23T16:48:41.012Z,3.55
2022-11-23T16:59:10.004Z,3.42
2022-11-23T17:04:13.244Z,3.38
2022-11-23T17:09:17.215Z,3.97
2022-11-23T17:14:22.145Z,3.60
2022-11-23T17:19:29.290Z,3.72
2022-11-23T17:24:33.390Z,3.70
2022-11-23T17:29:41.470Z,3.80
2022-11-23T17:34:44.407Z,3.75
2022-11-23T17:39:48.517Z,3.88
2022-11-23T17:44:50.866Z,3.78
2022-11-23T17:49:53.193Z,4.10
2022-11-23T17:54:56.915Z,4.63
2022-11-23T18:00:03.233Z,4.32
2022-11-23T18:05:06.443Z,4.70
2022-11-23T18:10:12.423Z,5.60
2022-11-23T18:15:15.080Z,6.22
2022-11-23T18:20:17.756Z,6.00
2022-11-23T18:25:21.662Z,5.47
2022-11-23T18:30:24.136Z,12.75
2022-11-23T18:35:26.529Z,7.05
2022-11-23T18:40:30.353Z,7.03
2022-11-23T18:45:32.794Z,7.25
2022-11-23T18:50:35.152Z,7.97
2022-11-23T18:55:38.856Z,8.27
2022-11-23T19:00:41.309Z,7.90
2022-11-23T19:05:43.682Z,8.65
2022-11-23T19:10:47.773Z,9.48
2022-11-23T19:15:51.167Z,10.15
2022-11-23T19:20:53.571Z,9.77
2022-11-23T19:26:02.845Z,8.45
2022-11-23T19:31:12.102Z,8.57
2022-11-23T19:36:15.129Z,8.88
2022-11-23T19:41:19.694Z,8.75
2022-11-23T19:46:22.897Z,8.20
2022-11-23T19:51:27.722Z,9.43
2022-11-23T19:56:31.466Z,8.70
2022-11-23T20:01:37.867Z,8.43
2022-11-23T20:06:42.367Z,8.07
2022-11-23T20:11:50.687Z,8.40
2022-11-23T20:16:53.770Z,8.38
2022-11-23T20:21:56.470Z,9.15
2022-11-23T20:27:00.156Z,9.57
2022-11-23T20:32:02.724Z,10.18
2022-11-23T20:37:06.331Z,9.67
2022-11-23T20:47:12.611Z,11.75
2022-11-23T20:52:15.063Z,10.75
2022-11-23T20:57:17.437Z,11.23
2022-11-23T21:02:21.183Z,10.60
2022-11-23T21:07:23.584Z,10.13
2022-11-23T21:12:49.127Z,10.88
2022-11-23T21:17:54.160Z,12.65
2022-11-23T21:22:57.569Z,12.43
2022-11-23T21:28:03.068Z,12.98
2022-11-23T21:33:06.828Z,13.07
2022-11-23T21:38:09.184Z,13.38
2022-11-23T21:43:11.527Z,13.90
2022-11-23T21:48:15.234Z,15.27
2022-11-23T21:53:17.574Z,14.30
2022-11-23T21:58:20.043Z,14.85
2022-11-23T22:03:23.888Z,15.30
2022-11-23T22:08:29.210Z,14.70
2022-11-23T22:13:36.693Z,15.05
2022-11-23T22:18:40.940Z,15.90
2022-11-23T22:23:43.797Z,16.27
2022-11-23T22:28:47.475Z,15.90
2022-11-23T22:33:53.089Z,14.80
2022-11-23T22:39:01.052Z,15.23
2022-11-23T22:44:04.458Z,14.95
2022-11-23T22:49:08.387Z,15.85
2022-11-23T22:54:10.940Z,15.50
2022-11-23T22:59:13.444Z,14.13
2022-11-23T23:04:17.317Z,13.57
2022-11-23T23:09:19.971Z,12.75
2022-11-23T23:14:22.481Z,12.93
2022-11-23T23:19:26.325Z,15.02
2022-11-23T23:24:28.837Z,12.63
2022-11-23T23:29:31.735Z,12.95
2022-11-23T23:34:35.735Z,11.43
2022-11-23T23:39:38.309Z,10.48
2022-11-23T23:44:40.782Z,10.93
2022-11-23T23:49:44.707Z,10.18
2022-11-23T23:54:47.148Z,10.50
2022-11-23T23:59:49.612Z,9.80
